sensor_id;sensor_type;location;lat;lon;timestamp;pressure;altitude;pressure_sealevel;temperature;humidity
50105;BME280;47690;39.202;-77.198;2022-11-10T00:01:08;101775.72;;;37.12;9.24
50105;BME280;47690;39.202;-77.198;2022-11-10T00:04:12;101774.41;;;37.16;9.04
50105;BME280;47690;39.202;-77.198;2022-11-10T00:07:06;101766.31;;;37.08;8.58
50105;BME280;47690;39.202;-77.198;2022-11-10T00:10:03;101753.31;;;38.38;8.79
50105;BME280;47690;39.202;-77.198;2022-11-10T00:13:03;101753.16;;;37.40;9.00
50105;BME280;47690;39.202;-77.198;2022-11-10T00:16:04;101759.66;;;37.21;9.04
50105;BME280;47690;39.202;-77.198;2022-11-10T00:19:35;101767.59;;;37.04;9.45
50105;BME280;47690;39.202;-77.198;2022-11-10T00:22:31;101772.81;;;37.06;8.94
50105;BME280;47690;39.202;-77.198;2022-11-10T00:25:32;101778.16;;;36.97;9.29
50105;BME280;47690;39.202;-77.198;2022-11-10T00:28:34;101782.97;;;36.85;8.67
50105;BME280;47690;39.202;-77.198;2022-11-10T00:31:32;101774.75;;;36.87;9.34
50105;BME280;47690;39.202;-77.198;2022-11-10T00:34:34;101778.41;;;36.51;9.30
50105;BME280;47690;39.202;-77.198;2022-11-10T00:37:33;101776.00;;;36.40;9.10
50105;BME280;47690;39.202;-77.198;2022-11-10T00:40:34;101774.78;;;36.34;9.56
50105;BME280;47690;39.202;-77.198;2022-11-10T00:43:32;101772.72;;;36.28;9.54
50105;BME280;47690;39.202;-77.198;2022-11-10T00:46:32;101770.91;;;36.10;9.18
50105;BME280;47690;39.202;-77.198;2022-11-10T00:49:33;101770.91;;;36.10;9.46
50105;BME280;47690;39.202;-77.198;2022-11-10T00:52:37;101769.50;;;36.06;9.69
50105;BME280;47690;39.202;-77.198;2022-11-10T00:55:32;101764.94;;;35.98;9.41
50105;BME280;47690;39.202;-77.198;2022-11-10T00:58:35;101774.66;;;35.99;9.65
50105;BME280;47690;39.202;-77.198;2022-11-10T01:01:32;101776.94;;;35.94;9.70
50105;BME280;47690;39.202;-77.198;2022-11-10T01:04:35;101772.22;;;35.88;9.75
50105;BME280;47690;39.202;-77.198;2022-11-10T01:07:32;101774.66;;;35.81;9.30
50105;BME280;47690;39.202;-77.198;2022-11-10T01:10:23;101779.56;;;35.67;9.60
50105;BME280;47690;39.202;-77.198;2022-11-10T01:13:12;101776.94;;;35.58;9.68
50105;BME280;47690;39.202;-77.198;2022-11-10T01:16:15;101764.09;;;35.61;9.91
50105;BME280;47690;39.202;-77.198;2022-11-10T01:19:32;101772.53;;;35.66;9.94
50105;BME280;47690;39.202;-77.198;2022-11-10T01:22:44;101776.66;;;35.61;9.55
50105;BME280;47690;39.202;-77.198;2022-11-10T01:25:39;101763.81;;;35.36;9.68
50105;BME280;47690;39.202;-77.198;2022-11-10T01:28:31;101764.47;;;35.20;9.81
50105;BME280;47690;39.202;-77.198;2022-11-10T01:31:23;101767.31;;;35.19;10.06
50105;BME280;47690;39.202;-77.198;2022-11-10T01:34:20;101773.78;;;35.26;9.85
50105;BME280;47690;39.202;-77.198;2022-11-10T01:37:15;101767.19;;;35.38;10.00
50105;BME280;47690;39.202;-77.198;2022-11-10T01:40:08;101764.06;;;35.43;9.78
50105;BME280;47690;39.202;-77.198;2022-11-10T01:43:16;101762.09;;;36.18;9.86
50105;BME280;47690;39.202;-77.198;2022-11-10T01:46:12;101767.03;;;36.57;8.99
50105;BME280;47690;39.202;-77.198;2022-11-10T01:49:12;101754.16;;;35.72;9.61
50105;BME280;47690;39.202;-77.198;2022-11-10T01:52:27;101761.53;;;35.70;10.19
50105;BME280;47690;39.202;-77.198;2022-11-10T01:55:23;101755.13;;;35.52;9.89
50105;BME280;47690;39.202;-77.198;2022-11-10T01:58:25;101765.75;;;35.44;10.17
50105;BME280;47690;39.202;-77.198;2022-11-10T02:01:32;101762.84;;;35.55;9.93
50105;BME280;47690;39.202;-77.198;2022-11-10T02:04:34;101769.53;;;35.51;10.04
50105;BME280;47690;39.202;-77.198;2022-11-10T02:07:34;101774.34;;;35.48;9.77
50105;BME280;47690;39.202;-77.198;2022-11-10T02:10:36;101769.34;;;35.53;10.02
50105;BME280;47690;39.202;-77.198;2022-11-10T02:13:35;101768.44;;;35.44;9.96
50105;BME280;47690;39.202;-77.198;2022-11-10T02:16:39;101766.84;;;35.51;9.43
50105;BME280;47690;39.202;-77.198;2022-11-10T02:19:41;101768.03;;;35.39;9.95
50105;BME280;47690;39.202;-77.198;2022-11-10T02:22:39;101761.66;;;35.22;10.01
50105;BME280;47690;39.202;-77.198;2022-11-10T02:25:31;101772.44;;;35.02;9.80
50105;BME280;47690;39.202;-77.198;2022-11-10T02:28:24;101775.03;;;34.84;10.10
50105;BME280;47690;39.202;-77.198;2022-11-10T02:31:23;101766.34;;;34.72;9.91
50105;BME280;47690;39.202;-77.198;2022-11-10T02:34:33;101768.91;;;34.73;10.38
50105;BME280;47690;39.202;-77.198;2022-11-10T02:37:36;101765.81;;;34.68;10.39
50105;BME280;47690;39.202;-77.198;2022-11-10T02:40:38;101763.44;;;34.65;10.34
50105;BME280;47690;39.202;-77.198;2022-11-10T02:43:43;101764.09;;;34.77;10.44
50105;BME280;47690;39.202;-77.198;2022-11-10T02:46:36;101753.84;;;34.72;10.10
50105;BME280;47690;39.202;-77.198;2022-11-10T02:49:35;101760.16;;;34.81;10.35
50105;BME280;47690;39.202;-77.198;2022-11-10T02:52:38;101752.34;;;34.88;10.18
50105;BME280;47690;39.202;-77.198;2022-11-10T02:55:42;101752.13;;;34.81;10.04
50105;BME280;47690;39.202;-77.198;2022-11-10T02:58:40;101751.44;;;34.69;9.97
50105;BME280;47690;39.202;-77.198;2022-11-10T03:01:46;101748.09;;;34.57;10.02
50105;BME280;47690;39.202;-77.198;2022-11-10T03:04:44;101748.69;;;34.51;10.22
50105;BME280;47690;39.202;-77.198;2022-11-10T03:07:44;101745.72;;;34.44;10.10
50105;BME280;47690;39.202;-77.198;2022-11-10T03:10:39;101749.97;;;34.37;10.16
50105;BME280;47690;39.202;-77.198;2022-11-10T03:13:34;101741.97;;;34.17;10.47
50105;BME280;47690;39.202;-77.198;2022-11-10T03:16:54;101739.16;;;34.09;10.33
50105;BME280;47690;39.202;-77.198;2022-11-10T03:20:03;101728.78;;;34.06;10.69
50105;BME280;47690;39.202;-77.198;2022-11-10T03:23:04;101731.59;;;34.04;10.65
50105;BME280;47690;39.202;-77.198;2022-11-10T03:26:12;101732.84;;;34.10;10.50
50105;BME280;47690;39.202;-77.198;2022-11-10T03:29:02;101722.41;;;33.97;10.56
50105;BME280;47690;39.202;-77.198;2022-11-10T03:32:03;101725.41;;;34.04;10.72
50105;BME280;47690;39.202;-77.198;2022-11-10T03:35:03;101723.69;;;34.03;10.13
50105;BME280;47690;39.202;-77.198;2022-11-10T03:38:07;101713.72;;;33.95;10.65
50105;BME280;47690;39.202;-77.198;2022-11-10T03:41:03;101714.81;;;33.92;10.23
50105;BME280;47690;39.202;-77.198;2022-11-10T03:44:12;101713.72;;;33.75;10.17
50105;BME280;47690;39.202;-77.198;2022-11-10T03:47:04;101717.38;;;33.74;10.52
50105;BME280;47690;39.202;-77.198;2022-11-10T03:50:06;101713.00;;;33.73;10.26
50105;BME280;47690;39.202;-77.198;2022-11-10T03:53:03;101711.59;;;33.69;10.50
50105;BME280;47690;39.202;-77.198;2022-11-10T03:56:04;101708.38;;;33.65;10.59
50105;BME280;47690;39.202;-77.198;2022-11-10T03:59:03;101712.00;;;33.55;10.71
50105;BME280;47690;39.202;-77.198;2022-11-10T04:02:03;101709.94;;;33.48;10.88
50105;BME280;47690;39.202;-77.198;2022-11-10T04:05:06;101710.19;;;33.55;11.05
50105;BME280;47690;39.202;-77.198;2022-11-10T04:08:35;101698.09;;;33.61;10.99
50105;BME280;47690;39.202;-77.198;2022-11-10T04:11:54;101698.09;;;33.61;10.99
50105;BME280;47690;39.202;-77.198;2022-11-10T04:15:13;101692.50;;;33.64;10.86
50105;BME280;47690;39.202;-77.198;2022-11-10T04:18:35;101690.94;;;33.81;10.62
50105;BME280;47690;39.202;-77.198;2022-11-10T04:21:40;101695.00;;;33.65;10.49
50105;BME280;47690;39.202;-77.198;2022-11-10T04:24:34;101689.66;;;33.65;10.57
50105;BME280;47690;39.202;-77.198;2022-11-10T04:27:37;101686.84;;;33.57;10.40
50105;BME280;47690;39.202;-77.198;2022-11-10T04:30:33;101683.78;;;33.52;10.24
50105;BME280;47690;39.202;-77.198;2022-11-10T04:33:44;101683.88;;;33.41;10.50
50105;BME280;47690;39.202;-77.198;2022-11-10T04:37:08;101674.44;;;33.46;10.45
50105;BME280;47690;39.202;-77.198;2022-11-10T04:40:11;101672.19;;;33.42;10.73
50105;BME280;47690;39.202;-77.198;2022-11-10T04:43:22;101687.41;;;33.51;10.55
50105;BME280;47690;39.202;-77.198;2022-11-10T04:46:42;101673.91;;;34.50;10.18
50105;BME280;47690;39.202;-77.198;2022-11-10T04:49:43;101678.81;;;34.64;9.85
50105;BME280;47690;39.202;-77.198;2022-11-10T04:53:02;101679.97;;;33.74;10.55
50105;BME280;47690;39.202;-77.198;2022-11-10T04:56:40;101668.13;;;33.47;10.42
50105;BME280;47690;39.202;-77.198;2022-11-10T04:59:34;101667.56;;;33.24;10.61
50105;BME280;47690;39.202;-77.198;2022-11-10T05:02:23;101671.78;;;33.46;10.21
50105;BME280;47690;39.202;-77.198;2022-11-10T05:05:17;101667.53;;;33.14;10.87
50105;BME280;47690;39.202;-77.198;2022-11-10T05:08:12;101662.34;;;33.13;10.81
50105;BME280;47690;39.202;-77.198;2022-11-10T05:11:01;101661.91;;;33.17;10.36
50105;BME280;47690;39.202;-77.198;2022-11-10T05:13:50;101654.75;;;33.18;10.35
50105;BME280;47690;39.202;-77.198;2022-11-10T05:16:39;101656.44;;;33.19;10.76
50105;BME280;47690;39.202;-77.198;2022-11-10T05:19:28;101656.31;;;33.20;10.49
50105;BME280;47690;39.202;-77.198;2022-11-10T05:22:17;101657.00;;;33.22;10.25
50105;BME280;47690;39.202;-77.198;2022-11-10T05:25:08;101660.38;;;33.24;10.37
50105;BME280;47690;39.202;-77.198;2022-11-10T05:27:58;101655.59;;;33.08;10.37
50105;BME280;47690;39.202;-77.198;2022-11-10T05:30:50;101648.13;;;33.02;10.41
50105;BME280;47690;39.202;-77.198;2022-11-10T05:33:40;101646.03;;;33.06;10.92
50105;BME280;47690;39.202;-77.198;2022-11-10T05:36:28;101645.47;;;33.02;10.39
50105;BME280;47690;39.202;-77.198;2022-11-10T05:39:19;101644.78;;;33.00;10.99
50105;BME280;47690;39.202;-77.198;2022-11-10T05:42:08;101644.72;;;32.90;10.71
50105;BME280;47690;39.202;-77.198;2022-11-10T05:45:25;101629.13;;;32.86;10.83
50105;BME280;47690;39.202;-77.198;2022-11-10T05:48:16;101634.28;;;32.77;10.86
50105;BME280;47690;39.202;-77.198;2022-11-10T05:51:05;101639.16;;;32.62;10.65
50105;BME280;47690;39.202;-77.198;2022-11-10T05:53:58;101631.97;;;32.53;11.07
50105;BME280;47690;39.202;-77.198;2022-11-10T05:56:46;101629.84;;;32.47;11.11
50105;BME280;47690;39.202;-77.198;2022-11-10T05:59:35;101624.19;;;32.40;11.00
50105;BME280;47690;39.202;-77.198;2022-11-10T06:02:24;101616.50;;;32.47;11.09
50105;BME280;47690;39.202;-77.198;2022-11-10T06:05:14;101622.00;;;32.55;10.89
50105;BME280;47690;39.202;-77.198;2022-11-10T06:08:04;101617.13;;;32.60;10.96
50105;BME280;47690;39.202;-77.198;2022-11-10T06:10:54;101618.97;;;32.69;10.44
50105;BME280;47690;39.202;-77.198;2022-11-10T06:13:43;101602.97;;;32.69;10.72
50105;BME280;47690;39.202;-77.198;2022-11-10T06:16:34;101607.88;;;32.74;10.50
50105;BME280;47690;39.202;-77.198;2022-11-10T06:19:24;101603.53;;;32.73;11.04
50105;BME280;47690;39.202;-77.198;2022-11-10T06:22:18;101601.13;;;32.70;10.83
50105;BME280;47690;39.202;-77.198;2022-11-10T06:25:09;101598.72;;;32.67;10.67
50105;BME280;47690;39.202;-77.198;2022-11-10T06:28:32;101604.53;;;32.92;11.20
50105;BME280;47690;39.202;-77.198;2022-11-10T06:38:19;101606.84;;;33.06;11.08
50105;BME280;47690;39.202;-77.198;2022-11-10T06:47:07;101605.28;;;32.94;10.83
50105;BME280;47690;39.202;-77.198;2022-11-10T07:17:09;101602.75;;;32.51;10.86
50105;BME280;47690;39.202;-77.198;2022-11-10T07:21:36;101598.97;;;32.54;11.27
50105;BME280;47690;39.202;-77.198;2022-11-10T07:25:23;101583.88;;;32.74;11.13
50105;BME280;47690;39.202;-77.198;2022-11-10T07:29:35;101584.91;;;32.42;11.16
50105;BME280;47690;39.202;-77.198;2022-11-10T07:34:50;101573.56;;;32.50;11.04
50105;BME280;47690;39.202;-77.198;2022-11-10T07:54:57;101539.75;;;31.88;11.13
50105;BME280;47690;39.202;-77.198;2022-11-10T07:58:43;101538.63;;;31.91;11.26
50105;BME280;47690;39.202;-77.198;2022-11-10T08:13:56;101519.63;;;32.05;11.24
50105;BME280;47690;39.202;-77.198;2022-11-10T08:45:06;101504.66;;;32.14;10.97
50105;BME280;47690;39.202;-77.198;2022-11-10T08:55:44;101488.28;;;32.19;11.38
50105;BME280;47690;39.202;-77.198;2022-11-10T09:05:59;101499.66;;;32.30;11.19
50105;BME280;47690;39.202;-77.198;2022-11-10T09:31:43;101496.81;;;32.73;11.19
50105;BME280;47690;39.202;-77.198;2022-11-10T12:31:40;101469.84;;;33.25;11.11
50105;BME280;47690;39.202;-77.198;2022-11-10T12:37:30;101467.91;;;33.28;11.29
50105;BME280;47690;39.202;-77.198;2022-11-10T14:06:37;101432.97;;;39.31;10.81
50105;BME280;47690;39.202;-77.198;2022-11-10T14:39:00;101405.13;;;41.56;10.68
50105;BME280;47690;39.202;-77.198;2022-11-10T14:49:19;101403.25;;;42.25;10.65
50105;BME280;47690;39.202;-77.198;2022-11-10T14:54:41;101391.38;;;42.60;10.28
50105;BME280;47690;39.202;-77.198;2022-11-10T15:34:52;101356.44;;;45.59;9.75
50105;BME280;47690;39.202;-77.198;2022-11-10T15:45:24;101343.28;;;46.58;9.42
50105;BME280;47690;39.202;-77.198;2022-11-10T15:49:39;101341.63;;;46.57;9.10
50105;BME280;47690;39.202;-77.198;2022-11-10T16:14:15;101297.81;;;48.31;8.48
50105;BME280;47690;39.202;-77.198;2022-11-10T16:28:24;101269.09;;;47.55;9.16
50105;BME280;47690;39.202;-77.198;2022-11-10T17:04:43;101205.84;;;50.69;7.69
50105;BME280;47690;39.202;-77.198;2022-11-10T17:14:17;101183.72;;;48.38;8.22
50105;BME280;47690;39.202;-77.198;2022-11-10T17:19:20;101172.16;;;48.31;8.74
50105;BME280;47690;39.202;-77.198;2022-11-10T17:29:28;101134.59;;;48.44;8.18
50105;BME280;47690;39.202;-77.198;2022-11-10T18:05:10;101093.91;;;50.25;7.85
50105;BME280;47690;39.202;-77.198;2022-11-10T18:09:07;101068.75;;;49.54;7.92
50105;BME280;47690;39.202;-77.198;2022-11-10T18:23:53;101048.81;;;48.39;8.42
50105;BME280;47690;39.202;-77.198;2022-11-10T18:46:08;101023.41;;;48.11;8.89
50105;BME280;47690;39.202;-77.198;2022-11-10T18:49:16;101015.75;;;47.64;8.92
50105;BME280;47690;39.202;-77.198;2022-11-10T18:52:09;101007.19;;;47.55;8.87
50105;BME280;47690;39.202;-77.198;2022-11-10T18:55:11;101009.16;;;47.37;9.16
50105;BME280;47690;39.202;-77.198;2022-11-10T18:58:05;101007.50;;;47.36;9.37
50105;BME280;47690;39.202;-77.198;2022-11-10T19:01:09;101010.03;;;47.43;9.35
50105;BME280;47690;39.202;-77.198;2022-11-10T19:04:15;101010.63;;;47.45;9.41
50105;BME280;47690;39.202;-77.198;2022-11-10T19:07:05;101002.94;;;47.25;8.82
50105;BME280;47690;39.202;-77.198;2022-11-10T19:10:07;100997.28;;;47.49;9.09
50105;BME280;47690;39.202;-77.198;2022-11-10T19:13:10;100993.03;;;47.36;9.36
50105;BME280;47690;39.202;-77.198;2022-11-10T19:16:12;100996.00;;;47.34;9.29
50105;BME280;47690;39.202;-77.198;2022-11-10T19:24:24;100990.41;;;47.68;8.78
50105;BME280;47690;39.202;-77.198;2022-11-10T19:27:17;100989.94;;;47.32;9.36
50105;BME280;47690;39.202;-77.198;2022-11-10T19:30:08;100989.91;;;47.27;9.46
50105;BME280;47690;39.202;-77.198;2022-11-10T19:33:05;100985.09;;;47.34;9.17
50105;BME280;47690;39.202;-77.198;2022-11-10T19:36:12;100986.09;;;47.50;9.12
50105;BME280;47690;39.202;-77.198;2022-11-10T19:39:01;100982.06;;;47.53;9.32
50105;BME280;47690;39.202;-77.198;2022-11-10T19:42:00;100984.66;;;47.42;9.29
50105;BME280;47690;39.202;-77.198;2022-11-10T19:44:48;100983.03;;;47.41;9.33
50105;BME280;47690;39.202;-77.198;2022-11-10T19:47:52;100974.25;;;47.62;9.15
50105;BME280;47690;39.202;-77.198;2022-11-10T19:50:52;100977.50;;;47.58;8.93
50105;BME280;47690;39.202;-77.198;2022-11-10T19:53:48;100970.56;;;47.51;9.15
50105;BME280;47690;39.202;-77.198;2022-11-10T19:56:42;100959.59;;;47.45;9.13
50105;BME280;47690;39.202;-77.198;2022-11-10T19:59:32;100951.72;;;47.49;9.29
50105;BME280;47690;39.202;-77.198;2022-11-10T20:02:22;100951.09;;;47.42;9.11
50105;BME280;47690;39.202;-77.198;2022-11-10T20:05:13;100952.25;;;47.46;9.42
50105;BME280;47690;39.202;-77.198;2022-11-10T20:08:06;100954.28;;;47.56;9.10
50105;BME280;47690;39.202;-77.198;2022-11-10T20:11:04;100947.19;;;47.55;9.17
50105;BME280;47690;39.202;-77.198;2022-11-10T20:14:01;100953.25;;;47.62;9.42
50105;BME280;47690;39.202;-77.198;2022-11-10T20:16:59;100958.03;;;47.50;9.10
50105;BME280;47690;39.202;-77.198;2022-11-10T20:19:52;100960.59;;;47.62;9.28
50105;BME280;47690;39.202;-77.198;2022-11-10T20:22:46;100961.06;;;47.53;9.37
50105;BME280;47690;39.202;-77.198;2022-11-10T20:25:37;100958.09;;;47.55;9.08
50105;BME280;47690;39.202;-77.198;2022-11-10T20:28:35;100951.66;;;47.66;9.33
50105;BME280;47690;39.202;-77.198;2022-11-10T20:36:31;100936.78;;;48.07;8.58
50105;BME280;47690;39.202;-77.198;2022-11-10T20:39:45;100927.41;;;47.97;8.94
50105;BME280;47690;39.202;-77.198;2022-11-10T20:42:44;100924.34;;;47.89;9.11
50105;BME280;47690;39.202;-77.198;2022-11-10T20:46:20;100917.41;;;48.08;8.81
50105;BME280;47690;39.202;-77.198;2022-11-10T20:50:10;100908.88;;;47.99;8.73
50105;BME280;47690;39.202;-77.198;2022-11-10T20:53:15;100901.81;;;48.04;9.38
50105;BME280;47690;39.202;-77.198;2022-11-10T20:56:13;100906.81;;;47.84;9.23
50105;BME280;47690;39.202;-77.198;2022-11-10T21:00:06;100915.88;;;48.56;8.60
50105;BME280;47690;39.202;-77.198;2022-11-10T21:03:16;100906.56;;;48.13;8.83
50105;BME280;47690;39.202;-77.198;2022-11-10T21:06:28;100912.53;;;47.83;9.18
50105;BME280;47690;39.202;-77.198;2022-11-10T21:09:48;100904.66;;;48.14;9.04
50105;BME280;47690;39.202;-77.198;2022-11-10T21:12:45;100903.19;;;48.77;8.38
50105;BME280;47690;39.202;-77.198;2022-11-10T21:15:53;100902.72;;;48.96;8.41
50105;BME280;47690;39.202;-77.198;2022-11-10T21:18:54;100903.72;;;48.03;8.85
50105;BME280;47690;39.202;-77.198;2022-11-10T21:35:30;100886.00;;;47.51;9.06
50105;BME280;47690;39.202;-77.198;2022-11-10T21:38:24;100880.97;;;47.15;9.12
50105;BME280;47690;39.202;-77.198;2022-11-10T21:41:15;100877.53;;;47.02;9.63
50105;BME280;47690;39.202;-77.198;2022-11-10T21:44:03;100884.22;;;46.95;9.72
50105;BME280;47690;39.202;-77.198;2022-11-10T21:46:55;100882.31;;;46.95;9.18
50105;BME280;47690;39.202;-77.198;2022-11-10T21:49:48;100873.19;;;46.84;9.51
50105;BME280;47690;39.202;-77.198;2022-11-10T21:52:39;100875.19;;;46.72;9.29
50105;BME280;47690;39.202;-77.198;2022-11-10T21:55:30;100875.97;;;46.67;9.89
50105;BME280;47690;39.202;-77.198;2022-11-10T21:58:20;100873.56;;;46.54;9.82
50105;BME280;47690;39.202;-77.198;2022-11-10T22:01:16;100866.22;;;46.71;9.35
50105;BME280;47690;39.202;-77.198;2022-11-10T22:04:08;100872.75;;;46.70;9.82
50105;BME280;47690;39.202;-77.198;2022-11-10T22:07:15;100869.75;;;46.72;9.74
50105;BME280;47690;39.202;-77.198;2022-11-10T22:10:10;100874.06;;;46.90;9.68
50105;BME280;47690;39.202;-77.198;2022-11-10T22:13:19;100871.03;;;46.86;9.27
50105;BME280;47690;39.202;-77.198;2022-11-10T22:50:42;100856.75;;;46.79;9.16
50105;BME280;47690;39.202;-77.198;2022-11-10T23:15:35;100846.50;;;46.47;10.12
50105;BME280;47690;39.202;-77.198;2022-11-10T23:35:38;100831.78;;;46.26;9.80
